createdAt,value
2022-08-22T00:02:26.317Z,61.05
2022-08-22T00:02:42.056Z,44.11
2022-08-22T00:03:12.734Z,61.21
2022-08-22T00:05:03.336Z,62.11
2022-08-22T00:07:45.304Z,62.18
2022-08-22T00:10:24.934Z,64.29
2022-08-22T00:13:03.234Z,64.30
2022-08-22T00:15:42.968Z,63.27
2022-08-22T00:18:16.152Z,63.68
2022-08-22T00:20:54.101Z,62.26
2022-08-22T00:23:28.898Z,62.00
2022-08-22T00:26:03.022Z,61.88
2022-08-22T00:28:37.015Z,62.00
2022-08-22T00:31:14.331Z,63.39
2022-08-22T00:33:49.849Z,63.95
2022-08-22T00:36:26.764Z,65.97
2022-08-22T00:39:07.303Z,65.29
2022-08-22T00:41:50.750Z,64.75
2022-08-22T00:44:43.032Z,63.64
2022-08-22T00:47:24.946Z,63.49
2022-08-22T00:50:27.269Z,63.03
2022-08-22T00:53:23.740Z,63.59
2022-08-22T00:56:04.836Z,64.74
2022-08-22T00:58:57.411Z,65.47
2022-08-22T01:01:32.617Z,66.07
2022-08-22T01:04:26.412Z,65.00
2022-08-22T01:07:09.230Z,63.66
2022-08-22T01:09:48.058Z,62.68
2022-08-22T01:12:31.696Z,64.32
2022-08-22T01:15:03.785Z,64.41
2022-08-22T01:17:58.147Z,65.74
2022-08-22T01:20:50.970Z,69.88
2022-08-22T01:24:05.818Z,71.93
2022-08-22T01:27:11.890Z,73.93
2022-08-22T01:30:16.383Z,75.40
2022-08-22T01:33:20.262Z,74.29
2022-08-22T01:36:25.321Z,71.86
2022-08-22T01:39:19.229Z,70.86
2022-08-22T01:42:20.215Z,68.87
2022-08-22T01:45:04.699Z,69.65
2022-08-22T01:47:39.325Z,71.90
2022-08-22T01:50:18.710Z,71.80
2022-08-22T01:52:51.619Z,70.41
2022-08-22T01:55:31.183Z,68.65
2022-08-22T01:58:04.917Z,67.41
2022-08-22T02:00:52.522Z,66.22
2022-08-22T02:03:26.172Z,69.18
2022-08-22T02:06:00.237Z,71.79
2022-08-22T02:08:39.036Z,72.13
2022-08-22T02:11:10.517Z,72.55
2022-08-22T02:13:54.297Z,75.13
2022-08-22T02:16:36.242Z,75.90
2022-08-22T02:19:12.771Z,75.45
2022-08-22T02:21:47.103Z,76.44
2022-08-22T02:24:25.959Z,75.79
2022-08-22T02:27:06.211Z,79.63
2022-08-22T02:29:41.613Z,78.73
2022-08-22T02:32:24.043Z,78.60
2022-08-22T02:35:06.243Z,78.36
2022-08-22T02:37:39.484Z,75.60
2022-08-22T02:40:17.861Z,73.93
2022-08-22T02:42:51.548Z,75.04
2022-08-22T02:45:38.981Z,75.25
2022-08-22T02:48:18.232Z,73.93
2022-08-22T02:50:54.328Z,72.55
2022-08-22T02:53:29.652Z,72.34
2022-08-22T02:56:04.173Z,71.52
2022-08-22T02:58:43.421Z,71.61
2022-08-22T03:01:23.296Z,70.71
2022-08-22T03:03:53.335Z,73.28
2022-08-22T03:06:38.106Z,73.77
2022-08-22T03:09:21.805Z,74.01
2022-08-22T03:12:06.185Z,75.58
2022-08-22T03:14:43.367Z,74.82
2022-08-22T03:17:16.198Z,75.18
2022-08-22T03:19:50.346Z,75.42
2022-08-22T03:22:24.044Z,79.87
2022-08-22T03:24:56.425Z,81.83
2022-08-22T03:27:32.624Z,78.50
2022-08-22T03:30:07.077Z,77.61
2022-08-22T03:32:51.220Z,77.24
2022-08-22T03:35:39.416Z,77.51
2022-08-22T03:38:18.894Z,77.25
2022-08-22T03:41:28.128Z,81.93
2022-08-22T03:44:13.470Z,79.43
2022-08-22T03:47:09.136Z,78.71
2022-08-22T03:50:14.746Z,78.53
2022-08-22T03:53:18.527Z,78.29
2022-08-22T03:56:24.043Z,78.26
2022-08-22T03:59:29.688Z,78.65
2022-08-22T04:02:24.744Z,81.53
2022-08-22T04:05:38.785Z,78.74
2022-08-22T04:08:50.438Z,77.38
2022-08-22T04:11:42.609Z,75.20
2022-08-22T04:14:28.841Z,74.30
2022-08-22T04:17:21.268Z,74.23
2022-08-22T04:20:27.619Z,73.77
2022-08-22T04:23:43.361Z,77.22
2022-08-22T04:26:16.482Z,77.34
2022-08-22T04:28:49.084Z,77.36
2022-08-22T04:31:23.433Z,77.27
2022-08-22T04:33:55.662Z,77.32
2022-08-22T04:36:30.372Z,77.80
2022-08-22T04:39:03.686Z,80.38
2022-08-22T04:41:37.579Z,82.91
2022-08-22T04:44:12.027Z,85.00
2022-08-22T04:46:49.045Z,85.96
2022-08-22T04:49:25.899Z,86.36
2022-08-22T04:52:04.178Z,87.81
2022-08-22T04:54:44.038Z,88.03
2022-08-22T04:57:27.054Z,89.26
2022-08-22T05:00:00.379Z,89.64
2022-08-22T05:02:29.771Z,85.78
2022-08-22T05:05:04.018Z,85.99
2022-08-22T05:07:36.491Z,87.54
2022-08-22T05:10:12.038Z,90.25
2022-08-22T05:12:44.693Z,88.96
2022-08-22T05:15:19.033Z,88.59
2022-08-22T05:17:57.298Z,86.71
2022-08-22T05:20:28.731Z,85.52
2022-08-22T05:22:59.438Z,85.73
2022-08-22T05:25:32.402Z,86.22
2022-08-22T05:28:08.546Z,84.60
2022-08-22T05:30:37.577Z,84.47
2022-08-22T05:33:17.603Z,85.50
2022-08-22T05:35:54.579Z,85.85
2022-08-22T05:38:31.001Z,86.41
2022-08-22T05:41:06.505Z,86.82
2022-08-22T05:43:40.628Z,84.53
2022-08-22T05:46:17.550Z,84.84
2022-08-22T05:48:54.179Z,86.17
2022-08-22T05:51:26.501Z,86.00
2022-08-22T05:54:08.254Z,85.22
2022-08-22T05:56:39.885Z,84.31
2022-08-22T05:59:23.137Z,81.11
2022-08-22T06:02:01.681Z,79.89
2022-08-22T06:04:36.864Z,77.76
2022-08-22T06:07:13.078Z,76.84
2022-08-22T06:10:02.871Z,76.19
2022-08-22T06:12:37.602Z,79.21
2022-08-22T06:15:12.826Z,77.02
2022-08-22T06:17:45.502Z,75.19
2022-08-22T06:20:21.384Z,73.73
2022-08-22T06:22:55.272Z,72.89
2022-08-22T06:25:32.719Z,72.36
2022-08-22T06:28:05.191Z,72.07
2022-08-22T06:30:35.151Z,73.24
2022-08-22T06:33:08.131Z,71.03
2022-08-22T06:36:03.032Z,70.37
2022-08-22T06:38:52.917Z,70.10
2022-08-22T06:41:27.550Z,68.31
2022-08-22T06:43:57.448Z,68.03
2022-08-22T06:46:29.828Z,67.53
2022-08-22T06:49:03.950Z,67.30
2022-08-22T06:51:35.795Z,68.83
2022-08-22T06:54:08.002Z,68.64
2022-08-22T06:56:41.088Z,66.84
2022-08-22T06:59:12.002Z,66.62
2022-08-22T07:01:45.295Z,65.61
2022-08-22T07:04:14.026Z,65.17
2022-08-22T07:06:47.269Z,65.57
2022-08-22T07:09:23.217Z,64.75
2022-08-22T07:11:52.987Z,63.93
2022-08-22T07:14:30.026Z,62.38
2022-08-22T07:17:00.482Z,62.19
2022-08-22T07:19:30.706Z,60.60
2022-08-22T07:22:11.000Z,60.82
2022-08-22T07:24:49.653Z,59.92
2022-08-22T07:27:32.960Z,60.07
2022-08-22T07:30:05.899Z,58.03
2022-08-22T07:32:57.810Z,57.54
2022-08-22T07:35:53.507Z,57.18
2022-08-22T07:38:33.634Z,55.36
2022-08-22T07:41:10.196Z,54.40
2022-08-22T07:43:44.499Z,54.34
2022-08-22T07:46:23.915Z,54.10
2022-08-22T07:49:08.591Z,54.56
2022-08-22T07:51:45.012Z,52.38
2022-08-22T07:54:17.614Z,51.15
2022-08-22T07:56:52.865Z,50.97
2022-08-22T07:59:23.150Z,51.11
2022-08-22T08:01:55.301Z,49.77
2022-08-22T08:04:30.042Z,49.11
2022-08-22T08:07:03.026Z,48.36
2022-08-22T08:09:35.045Z,47.21
2022-08-22T08:12:06.452Z,46.59
2022-08-22T08:14:38.063Z,46.96
2022-08-22T08:17:14.503Z,46.94
2022-08-22T08:19:44.228Z,45.87
2022-08-22T08:22:18.224Z,45.65
2022-08-22T08:24:49.253Z,45.77
2022-08-22T08:27:38.820Z,46.20
2022-08-22T08:30:15.394Z,44.15
2022-08-22T08:32:48.159Z,44.14
2022-08-22T08:35:25.478Z,45.47
2022-08-22T08:37:59.042Z,44.19
2022-08-22T08:40:55.178Z,43.31
2022-08-22T08:43:31.353Z,43.34
2022-08-22T08:46:26.254Z,44.74
2022-08-22T08:49:13.208Z,43.80
2022-08-22T08:52:04.664Z,42.75
2022-08-22T08:54:56.056Z,41.64
2022-08-22T08:57:38.584Z,41.61
2022-08-22T09:00:12.417Z,39.95
2022-08-22T09:03:09.567Z,39.83
2022-08-22T09:06:02.351Z,41.38
2022-08-22T09:09:09.031Z,40.84
2022-08-22T09:12:16.620Z,41.19
2022-08-22T09:15:26.280Z,41.23
2022-08-22T09:18:29.877Z,39.99
2022-08-22T09:21:31.180Z,41.28
2022-08-22T09:24:29.393Z,40.28
2022-08-22T09:27:01.206Z,39.18
2022-08-22T09:29:54.643Z,39.69
2022-08-22T09:32:37.471Z,40.22
2022-08-22T09:35:10.659Z,39.38
2022-08-22T09:37:51.702Z,39.49
2022-08-22T09:43:02.584Z,39.35
2022-08-22T09:45:50.110Z,39.43
2022-08-22T09:48:36.805Z,39.43
2022-08-22T09:51:31.771Z,41.45
2022-08-22T09:54:31.536Z,38.37
2022-08-22T09:57:19.454Z,39.21
2022-08-22T10:00:16.431Z,37.63
2022-08-22T10:02:58.777Z,38.67
2022-08-22T10:05:43.557Z,38.32
2022-08-22T10:08:20.908Z,39.03
2022-08-22T10:11:18.938Z,39.89
2022-08-22T10:14:01.276Z,38.13
2022-08-22T10:16:56.336Z,37.66
2022-08-22T10:19:29.639Z,35.35
2022-08-22T10:22:30.324Z,36.63
2022-08-22T10:25:09.218Z,35.56
2022-08-22T10:27:56.178Z,38.03
2022-08-22T10:30:28.466Z,35.68
2022-08-22T10:33:05.336Z,34.78
2022-08-22T10:35:39.001Z,33.04
2022-08-22T10:38:17.845Z,34.08
2022-08-22T10:40:53.870Z,34.14
2022-08-22T10:43:31.810Z,33.71
2022-08-22T10:46:06.667Z,34.43
2022-08-22T10:48:47.810Z,34.90
2022-08-22T10:51:21.419Z,35.47
2022-08-22T10:54:20.106Z,33.91
2022-08-22T10:56:56.070Z,32.07
2022-08-22T10:59:41.198Z,32.05
2022-08-22T11:02:34.884Z,32.43
2022-08-22T11:05:25.818Z,33.47
2022-08-22T11:08:06.343Z,32.89
2022-08-22T11:10:52.112Z,33.10
2022-08-22T11:13:39.593Z,33.60
2022-08-22T11:16:26.155Z,31.92
2022-08-22T11:19:15.346Z,32.67
2022-08-22T11:22:00.738Z,32.23
2022-08-22T11:25:05.015Z,32.09
2022-08-22T11:27:45.656Z,32.13
2022-08-22T11:30:19.273Z,31.57
2022-08-22T11:33:10.989Z,32.09
2022-08-22T11:35:46.171Z,31.89
2022-08-22T11:38:32.079Z,31.97
2022-08-22T11:41:05.154Z,33.18
2022-08-22T11:43:50.045Z,31.96
2022-08-22T11:46:29.346Z,32.44
2022-08-22T11:49:15.110Z,30.61
2022-08-22T11:52:00.266Z,30.61
2022-08-22T11:54:42.182Z,30.60
2022-08-22T11:57:18.783Z,31.66
2022-08-22T12:00:10.133Z,31.33
2022-08-22T12:02:48.647Z,31.25
2022-08-22T12:05:24.501Z,32.43
2022-08-22T12:08:02.374Z,33.70
2022-08-22T12:10:34.860Z,30.81
2022-08-22T12:13:09.209Z,30.67
2022-08-22T12:15:53.935Z,31.29
2022-08-22T12:18:44.982Z,31.83
2022-08-22T12:21:49.641Z,31.38
2022-08-22T12:24:33.378Z,30.56
2022-08-22T12:27:28.989Z,31.05
2022-08-22T12:30:14.237Z,31.83
2022-08-22T12:33:22.004Z,30.64
2022-08-22T12:36:17.911Z,29.49
2022-08-22T12:39:25.192Z,28.70
2022-08-22T12:42:23.937Z,28.90
2022-08-22T12:45:19.507Z,29.00
2022-08-22T12:48:00.960Z,28.67
2022-08-22T12:50:41.524Z,29.12
2022-08-22T12:53:58.809Z,30.55
2022-08-22T12:56:39.021Z,29.28
2022-08-22T12:59:27.270Z,29.87
2022-08-22T13:01:58.890Z,29.12
2022-08-22T13:04:33.018Z,29.04
2022-08-22T13:07:10.481Z,27.59
2022-08-22T13:09:49.376Z,28.38
2022-08-22T13:12:28.529Z,29.42
2022-08-22T13:15:02.951Z,29.84
2022-08-22T13:17:31.459Z,30.23
2022-08-22T13:20:10.793Z,30.98
2022-08-22T13:22:45.672Z,31.48
2022-08-22T13:25:26.103Z,28.86
2022-08-22T13:27:59.960Z,29.47
2022-08-22T13:30:33.752Z,30.56
2022-08-22T13:33:09.475Z,29.77
2022-08-22T13:35:44.689Z,30.22
2022-08-22T13:38:26.011Z,31.33
2022-08-22T13:40:57.839Z,31.22
2022-08-22T13:43:31.160Z,31.82
2022-08-22T13:46:02.485Z,33.03
2022-08-22T13:48:47.053Z,31.59
2022-08-22T13:51:24.730Z,31.13
2022-08-22T13:54:02.003Z,31.60
2022-08-22T13:56:47.243Z,31.10
2022-08-22T13:59:47.487Z,32.18
2022-08-22T14:02:19.729Z,31.97
2022-08-22T14:04:54.072Z,34.07
2022-08-22T14:07:33.398Z,33.13
2022-08-22T14:10:15.165Z,33.55
2022-08-22T14:13:07.995Z,34.90
2022-08-22T14:15:44.872Z,33.49
2022-08-22T14:18:18.513Z,33.60
2022-08-22T14:20:48.436Z,34.12
2022-08-22T14:23:26.919Z,33.36
2022-08-22T14:25:57.297Z,33.07
2022-08-22T14:28:31.544Z,32.81
2022-08-22T14:31:07.292Z,33.30
2022-08-22T14:33:40.864Z,32.59
2022-08-22T14:36:18.203Z,32.74
2022-08-22T14:38:51.824Z,32.63
2022-08-22T14:41:55.740Z,33.75
2022-08-22T14:44:26.831Z,32.97
2022-08-22T14:46:58.230Z,32.47
2022-08-22T14:49:35.416Z,33.01
2022-08-22T14:52:10.835Z,32.56
2022-08-22T14:54:48.655Z,31.67
2022-08-22T14:57:20.851Z,31.68
2022-08-22T14:59:54.252Z,31.18
2022-08-22T15:02:29.583Z,32.16
2022-08-22T15:05:02.213Z,31.48
2022-08-22T15:07:36.502Z,32.63
2022-08-22T15:10:11.856Z,33.74
2022-08-22T15:12:49.756Z,35.89
2022-08-22T15:15:32.549Z,34.99
2022-08-22T15:18:18.743Z,34.28
2022-08-22T15:20:52.160Z,33.29
2022-08-22T15:23:23.262Z,34.56
2022-08-22T15:26:03.689Z,35.57
2022-08-22T15:28:52.273Z,34.16
2022-08-22T15:31:23.484Z,34.10
2022-08-22T15:33:52.204Z,33.97
2022-08-22T15:36:22.810Z,33.89
2022-08-22T15:38:54.781Z,34.19
2022-08-22T15:41:39.801Z,34.22
2022-08-22T15:44:15.054Z,35.67
2022-08-22T15:47:23.739Z,34.78
2022-08-22T15:49:56.402Z,34.42
2022-08-22T15:52:29.968Z,35.71
2022-08-22T15:55:18.658Z,35.53
2022-08-22T15:58:04.472Z,35.80
2022-08-22T16:00:43.388Z,35.47
2022-08-22T16:03:26.991Z,36.27
2022-08-22T16:05:59.251Z,36.29
2022-08-22T16:08:33.259Z,35.81
2022-08-22T16:11:32.937Z,35.34
2022-08-22T16:14:22.201Z,35.55
2022-08-22T16:17:02.312Z,35.56
2022-08-22T16:19:32.880Z,36.22
2022-08-22T16:22:15.451Z,35.95
2022-08-22T16:25:00.159Z,35.49
2022-08-22T16:27:30.197Z,34.43
2022-08-22T16:30:15.275Z,35.38
2022-08-22T16:32:56.252Z,35.07
2022-08-22T16:36:03.777Z,34.33
2022-08-22T16:38:45.048Z,35.80
2022-08-22T16:41:42.857Z,34.27
2022-08-22T16:44:33.937Z,33.68
2022-08-22T16:47:14.952Z,34.83
2022-08-22T16:50:04.523Z,35.07
2022-08-22T16:52:58.338Z,35.12
2022-08-22T16:55:49.649Z,35.09
2022-08-22T16:58:59.237Z,34.93
2022-08-22T17:02:13.237Z,34.84
2022-08-22T17:04:53.449Z,34.99
2022-08-22T17:07:36.437Z,35.28
2022-08-22T17:10:33.441Z,35.73
2022-08-22T17:13:26.513Z,36.28
2022-08-22T17:16:07.330Z,36.01
2022-08-22T17:18:47.752Z,36.08
2022-08-22T17:21:25.918Z,36.50
2022-08-22T17:24:07.115Z,36.74
2022-08-22T17:26:54.286Z,36.00
2022-08-22T17:29:34.387Z,35.77
2022-08-22T17:32:16.802Z,36.74
2022-08-22T17:34:56.113Z,37.29
2022-08-22T17:37:41.876Z,37.13
2022-08-22T17:40:23.125Z,37.35
2022-08-22T17:43:04.845Z,37.61
2022-08-22T17:45:52.141Z,37.31
2022-08-22T17:48:26.061Z,36.95
2022-08-22T17:50:59.276Z,37.35
2022-08-22T17:53:35.115Z,36.71
2022-08-22T17:56:14.604Z,37.92
2022-08-22T17:58:50.838Z,39.02
2022-08-22T18:01:40.855Z,39.74
2022-08-22T18:04:20.284Z,40.53
2022-08-22T18:06:56.255Z,41.38
2022-08-22T18:09:36.451Z,41.26
2022-08-22T18:12:15.657Z,40.55
2022-08-22T18:14:51.378Z,40.17
2022-08-22T18:17:38.463Z,39.38
2022-08-22T18:20:13.089Z,39.25
2022-08-22T18:22:47.945Z,39.22
2022-08-22T18:25:34.124Z,39.17
2022-08-22T18:28:11.462Z,39.13
2022-08-22T18:30:51.971Z,39.47
2022-08-22T18:33:32.996Z,39.70
2022-08-22T18:36:09.200Z,39.85
2022-08-22T18:38:51.161Z,39.45
2022-08-22T18:41:27.758Z,39.54
2022-08-22T18:43:56.910Z,39.79
2022-08-22T18:46:45.500Z,40.38
2022-08-22T18:49:43.437Z,41.05
2022-08-22T18:52:35.728Z,40.99
2022-08-22T18:55:36.667Z,41.21
2022-08-22T18:58:41.732Z,42.18
2022-08-22T19:01:31.195Z,42.42
2022-08-22T19:04:41.658Z,42.67
2022-08-22T19:07:43.014Z,42.93
2022-08-22T19:10:31.939Z,43.29
2022-08-22T19:13:19.296Z,43.51
2022-08-22T19:16:01.166Z,44.94
2022-08-22T19:18:38.089Z,45.75
2022-08-22T19:21:50.689Z,45.26
2022-08-22T19:25:04.937Z,45.34
2022-08-22T19:27:40.921Z,47.14
2022-08-22T19:30:47.875Z,46.23
2022-08-22T19:33:27.649Z,46.36
2022-08-22T19:36:13.766Z,46.01
2022-08-22T19:38:56.934Z,46.55
2022-08-22T19:41:47.641Z,47.44
2022-08-22T19:44:35.972Z,46.99
2022-08-22T19:47:13.915Z,46.65
2022-08-22T19:49:49.919Z,46.79
2022-08-22T19:52:28.580Z,46.79
2022-08-22T19:55:16.330Z,47.02
2022-08-22T19:57:57.082Z,47.35
2022-08-22T20:00:49.262Z,48.33
2022-08-22T20:03:33.545Z,48.09
2022-08-22T20:06:22.005Z,47.69
2022-08-22T20:09:13.395Z,47.37
2022-08-22T20:11:49.579Z,47.64
2022-08-22T20:14:30.532Z,49.01
2022-08-22T20:17:09.048Z,49.17
2022-08-22T20:19:41.826Z,50.35
2022-08-22T20:22:16.321Z,50.79
2022-08-22T20:24:50.836Z,50.62
2022-08-22T20:27:25.232Z,50.09
2022-08-22T20:30:03.217Z,49.03
2022-08-22T20:32:37.921Z,49.79
2022-08-22T20:35:08.986Z,51.23
2022-08-22T20:38:05.217Z,51.32
2022-08-22T20:40:55.066Z,51.73
2022-08-22T20:43:34.472Z,50.77
2022-08-22T20:46:19.336Z,50.94
2022-08-22T20:48:52.392Z,51.08
2022-08-22T20:51:25.275Z,50.88
2022-08-22T20:53:56.874Z,50.58
2022-08-22T20:56:37.907Z,50.66
2022-08-22T20:59:23.426Z,52.43
2022-08-22T21:01:58.110Z,52.51
2022-08-22T21:04:29.350Z,51.35
2022-08-22T21:07:01.641Z,52.87
2022-08-22T21:09:48.325Z,52.16
2022-08-22T21:12:17.188Z,51.88
2022-08-22T21:14:47.323Z,51.52
2022-08-22T21:17:24.128Z,51.49
2022-08-22T21:19:54.357Z,54.67
2022-08-22T21:22:29.652Z,57.15
2022-08-22T21:25:00.262Z,56.37
2022-08-22T21:27:32.612Z,56.84
2022-08-22T21:30:04.065Z,56.88
2022-08-22T21:32:38.659Z,55.45
2022-08-22T21:35:21.744Z,54.63
2022-08-22T21:37:51.200Z,54.02
2022-08-22T21:40:25.218Z,54.50
2022-08-22T21:43:06.074Z,56.64
2022-08-22T21:45:37.152Z,57.28
2022-08-22T21:48:34.972Z,56.63
2022-08-22T21:51:23.827Z,55.25
2022-08-22T21:54:16.156Z,55.12
2022-08-22T21:56:40.723Z,55.97
2022-08-22T21:59:25.849Z,56.85
2022-08-22T22:02:31.464Z,59.81
2022-08-22T22:05:10.076Z,59.78
2022-08-22T22:07:40.575Z,59.23
2022-08-22T22:10:12.579Z,59.29
2022-08-22T22:12:47.690Z,60.75
2022-08-22T22:15:19.626Z,60.38
2022-08-22T22:17:51.398Z,58.88
2022-08-22T22:20:23.748Z,60.25
2022-08-22T22:22:52.785Z,59.78
2022-08-22T22:25:40.286Z,57.97
2022-08-22T22:28:14.562Z,59.92
2022-08-22T22:30:43.974Z,59.93
2022-08-22T22:33:13.420Z,61.85
2022-08-22T22:35:42.848Z,61.96
2022-08-22T22:38:11.652Z,61.80
2022-08-22T22:40:41.682Z,64.17
2022-08-22T22:43:11.508Z,63.37
2022-08-22T22:45:41.364Z,64.86
2022-08-22T22:48:10.740Z,64.89
2022-08-22T22:50:44.890Z,65.58
2022-08-22T22:53:19.375Z,64.80
2022-08-22T22:55:59.755Z,64.28
2022-08-22T22:58:29.742Z,64.34
2022-08-22T23:00:59.371Z,64.98
2022-08-22T23:03:28.630Z,66.22
2022-08-22T23:05:58.045Z,65.49
2022-08-22T23:08:26.881Z,64.16
2022-08-22T23:10:56.532Z,63.72
2022-08-22T23:13:24.893Z,63.43
2022-08-22T23:15:53.002Z,62.12
2022-08-22T23:18:30.507Z,62.74
2022-08-22T23:21:13.601Z,65.06
2022-08-22T23:23:43.469Z,64.81
2022-08-22T23:26:13.786Z,63.23
2022-08-22T23:28:43.655Z,63.36
2022-08-22T23:31:14.716Z,62.20
2022-08-22T23:33:43.808Z,62.49
2022-08-22T23:36:18.699Z,62.22
2022-08-22T23:38:47.554Z,63.50
2022-08-22T23:41:19.737Z,64.42
2022-08-22T23:43:49.566Z,66.98
2022-08-22T23:46:19.616Z,66.59
2022-08-22T23:48:47.792Z,65.68
2022-08-22T23:51:18.764Z,64.09
2022-08-22T23:53:52.328Z,63.90
2022-08-22T23:56:27.311Z,63.57
2022-08-22T23:58:55.468Z,64.28
